sensor_id;sensor_type;location;lat;lon;timestamp;P1;durP1;ratioP1;P2;durP2;ratioP2
59938;SDS011;45801;51.810;19.444;2023-06-14T00:00:37;6.90;;;3.10;;
59938;SDS011;45801;51.810;19.444;2023-06-14T00:03:27;6.00;;;2.80;;
59938;SDS011;45801;51.810;19.444;2023-06-14T00:05:53;6.10;;;3.10;;
59938;SDS011;45801;51.810;19.444;2023-06-14T00:08:20;5.90;;;2.90;;
59938;SDS011;45801;51.810;19.444;2023-06-14T00:10:48;8.40;;;3.10;;
59938;SDS011;45801;51.810;19.444;2023-06-14T00:13:15;6.80;;;3.20;;
59938;SDS011;45801;51.810;19.444;2023-06-14T00:15:43;8.40;;;3.30;;
59938;SDS011;45801;51.810;19.444;2023-06-14T00:18:10;6.20;;;3.00;;
59938;SDS011;45801;51.810;19.444;2023-06-14T00:20:38;6.70;;;3.10;;
59938;SDS011;45801;51.810;19.444;2023-06-14T00:23:05;7.80;;;3.50;;
59938;SDS011;45801;51.810;19.444;2023-06-14T00:25:32;7.20;;;3.00;;
59938;SDS011;45801;51.810;19.444;2023-06-14T00:27:58;5.80;;;3.00;;
59938;SDS011;45801;51.810;19.444;2023-06-14T00:30:25;7.20;;;3.20;;
59938;SDS011;45801;51.810;19.444;2023-06-14T00:32:51;8.80;;;3.70;;
59938;SDS011;45801;51.810;19.444;2023-06-14T00:35:18;6.50;;;2.90;;
59938;SDS011;45801;51.810;19.444;2023-06-14T00:37:44;7.50;;;3.30;;
59938;SDS011;45801;51.810;19.444;2023-06-14T00:40:11;7.30;;;3.20;;
59938;SDS011;45801;51.810;19.444;2023-06-14T00:42:37;8.20;;;3.60;;
59938;SDS011;45801;51.810;19.444;2023-06-14T00:45:05;7.80;;;3.50;;
59938;SDS011;45801;51.810;19.444;2023-06-14T00:47:32;7.40;;;3.20;;
59938;SDS011;45801;51.810;19.444;2023-06-14T00:49:59;7.50;;;3.20;;
59938;SDS011;45801;51.810;19.444;2023-06-14T00:52:27;8.00;;;3.30;;
59938;SDS011;45801;51.810;19.444;2023-06-14T00:54:53;7.30;;;3.20;;
59938;SDS011;45801;51.810;19.444;2023-06-14T00:57:20;8.70;;;3.40;;
59938;SDS011;45801;51.810;19.444;2023-06-14T00:59:48;7.70;;;3.00;;
59938;SDS011;45801;51.810;19.444;2023-06-14T01:02:15;8.50;;;3.80;;
59938;SDS011;45801;51.810;19.444;2023-06-14T01:04:47;7.10;;;3.60;;
59938;SDS011;45801;51.810;19.444;2023-06-14T01:07:21;7.40;;;3.40;;
59938;SDS011;45801;51.810;19.444;2023-06-14T01:12:57;7.20;;;3.60;;
59938;SDS011;45801;51.810;19.444;2023-06-14T01:15:44;7.70;;;3.10;;
59938;SDS011;45801;51.810;19.444;2023-06-14T01:18:11;6.90;;;3.50;;
59938;SDS011;45801;51.810;19.444;2023-06-14T01:20:44;7.80;;;3.80;;
59938;SDS011;45801;51.810;19.444;2023-06-14T01:23:16;7.70;;;3.50;;
59938;SDS011;45801;51.810;19.444;2023-06-14T01:25:43;9.20;;;4.00;;
59938;SDS011;45801;51.810;19.444;2023-06-14T01:28:11;8.40;;;3.20;;
59938;SDS011;45801;51.810;19.444;2023-06-14T01:30:39;7.90;;;3.80;;
59938;SDS011;45801;51.810;19.444;2023-06-14T01:33:15;6.70;;;3.60;;
59938;SDS011;45801;51.810;19.444;2023-06-14T01:38:12;8.70;;;4.10;;
59938;SDS011;45801;51.810;19.444;2023-06-14T01:40:39;8.30;;;4.20;;
59938;SDS011;45801;51.810;19.444;2023-06-14T01:43:07;8.60;;;4.10;;
59938;SDS011;45801;51.810;19.444;2023-06-14T01:45:37;7.40;;;3.60;;
59938;SDS011;45801;51.810;19.444;2023-06-14T01:48:06;8.30;;;3.80;;
59938;SDS011;45801;51.810;19.444;2023-06-14T01:50:33;8.00;;;4.20;;
59938;SDS011;45801;51.810;19.444;2023-06-14T01:53:00;8.20;;;4.10;;
59938;SDS011;45801;51.810;19.444;2023-06-14T01:55:27;7.60;;;4.30;;
59938;SDS011;45801;51.810;19.444;2023-06-14T01:57:53;9.20;;;4.30;;
59938;SDS011;45801;51.810;19.444;2023-06-14T02:00:20;10.40;;;4.50;;
59938;SDS011;45801;51.810;19.444;2023-06-14T02:02:47;8.60;;;4.70;;
59938;SDS011;45801;51.810;19.444;2023-06-14T02:05:15;8.50;;;5.00;;
59938;SDS011;45801;51.810;19.444;2023-06-14T02:07:45;8.30;;;4.30;;
59938;SDS011;45801;51.810;19.444;2023-06-14T02:10:13;10.90;;;4.90;;
59938;SDS011;45801;51.810;19.444;2023-06-14T02:12:41;8.70;;;5.10;;
59938;SDS011;45801;51.810;19.444;2023-06-14T02:15:08;9.10;;;5.30;;
59938;SDS011;45801;51.810;19.444;2023-06-14T02:17:35;9.30;;;5.60;;
59938;SDS011;45801;51.810;19.444;2023-06-14T02:20:01;10.40;;;5.60;;
59938;SDS011;45801;51.810;19.444;2023-06-14T02:22:31;9.30;;;5.20;;
59938;SDS011;45801;51.810;19.444;2023-06-14T02:24:57;9.90;;;5.90;;
59938;SDS011;45801;51.810;19.444;2023-06-14T02:27:23;9.00;;;5.60;;
59938;SDS011;45801;51.810;19.444;2023-06-14T02:29:50;9.50;;;6.00;;
59938;SDS011;45801;51.810;19.444;2023-06-14T02:32:28;10.30;;;5.90;;
59938;SDS011;45801;51.810;19.444;2023-06-14T02:34:55;10.20;;;6.40;;
59938;SDS011;45801;51.810;19.444;2023-06-14T02:37:21;10.80;;;6.30;;
59938;SDS011;45801;51.810;19.444;2023-06-14T02:39:48;10.00;;;6.10;;
59938;SDS011;45801;51.810;19.444;2023-06-14T02:42:14;10.20;;;6.30;;
59938;SDS011;45801;51.810;19.444;2023-06-14T02:44:41;11.10;;;7.30;;
59938;SDS011;45801;51.810;19.444;2023-06-14T02:47:07;10.00;;;6.40;;
59938;SDS011;45801;51.810;19.444;2023-06-14T02:49:34;11.40;;;7.80;;
59938;SDS011;45801;51.810;19.444;2023-06-14T02:52:00;11.00;;;7.30;;
59938;SDS011;45801;51.810;19.444;2023-06-14T02:54:27;11.40;;;7.10;;
59938;SDS011;45801;51.810;19.444;2023-06-14T02:56:54;9.80;;;6.80;;
59938;SDS011;45801;51.810;19.444;2023-06-14T02:59:20;12.20;;;7.50;;
59938;SDS011;45801;51.810;19.444;2023-06-14T03:01:47;10.50;;;7.00;;
59938;SDS011;45801;51.810;19.444;2023-06-14T03:04:14;11.20;;;6.90;;
59938;SDS011;45801;51.810;19.444;2023-06-14T03:06:41;10.20;;;7.20;;
59938;SDS011;45801;51.810;19.444;2023-06-14T03:09:10;10.40;;;6.70;;
59938;SDS011;45801;51.810;19.444;2023-06-14T03:11:36;12.70;;;7.10;;
59938;SDS011;45801;51.810;19.444;2023-06-14T03:14:03;9.80;;;7.00;;
59938;SDS011;45801;51.810;19.444;2023-06-14T03:16:34;11.00;;;7.50;;
59938;SDS011;45801;51.810;19.444;2023-06-14T03:19:01;10.40;;;6.50;;
59938;SDS011;45801;51.810;19.444;2023-06-14T03:21:27;13.00;;;6.40;;
59938;SDS011;45801;51.810;19.444;2023-06-14T03:23:54;11.10;;;6.60;;
59938;SDS011;45801;51.810;19.444;2023-06-14T03:26:21;10.30;;;6.80;;
59938;SDS011;45801;51.810;19.444;2023-06-14T03:28:48;10.90;;;6.60;;
59938;SDS011;45801;51.810;19.444;2023-06-14T03:31:16;9.90;;;6.60;;
59938;SDS011;45801;51.810;19.444;2023-06-14T03:33:42;11.30;;;6.40;;
59938;SDS011;45801;51.810;19.444;2023-06-14T03:36:09;11.30;;;6.50;;
59938;SDS011;45801;51.810;19.444;2023-06-14T03:38:36;12.20;;;6.50;;
59938;SDS011;45801;51.810;19.444;2023-06-14T03:41:02;9.70;;;6.20;;
59938;SDS011;45801;51.810;19.444;2023-06-14T03:43:28;13.00;;;6.50;;
59938;SDS011;45801;51.810;19.444;2023-06-14T03:45:56;11.90;;;7.00;;
59938;SDS011;45801;51.810;19.444;2023-06-14T03:48:22;10.70;;;6.40;;
59938;SDS011;45801;51.810;19.444;2023-06-14T03:50:49;10.30;;;6.70;;
59938;SDS011;45801;51.810;19.444;2023-06-14T03:53:16;9.80;;;6.20;;
59938;SDS011;45801;51.810;19.444;2023-06-14T03:55:43;11.40;;;6.00;;
59938;SDS011;45801;51.810;19.444;2023-06-14T03:58:09;10.20;;;6.20;;
59938;SDS011;45801;51.810;19.444;2023-06-14T04:00:36;10.80;;;6.00;;
59938;SDS011;45801;51.810;19.444;2023-06-14T04:03:03;9.60;;;5.80;;
59938;SDS011;45801;51.810;19.444;2023-06-14T04:05:39;10.50;;;6.10;;
59938;SDS011;45801;51.810;19.444;2023-06-14T04:08:09;11.20;;;6.10;;
59938;SDS011;45801;51.810;19.444;2023-06-14T04:10:36;11.50;;;6.60;;
59938;SDS011;45801;51.810;19.444;2023-06-14T04:13:02;10.70;;;6.20;;
59938;SDS011;45801;51.810;19.444;2023-06-14T04:15:29;11.10;;;6.40;;
59938;SDS011;45801;51.810;19.444;2023-06-14T04:17:55;10.00;;;6.50;;
59938;SDS011;45801;51.810;19.444;2023-06-14T04:20:23;11.90;;;6.60;;
59938;SDS011;45801;51.810;19.444;2023-06-14T04:22:51;11.40;;;6.10;;
59938;SDS011;45801;51.810;19.444;2023-06-14T04:25:18;12.50;;;6.90;;
59938;SDS011;45801;51.810;19.444;2023-06-14T04:27:46;9.50;;;6.30;;
59938;SDS011;45801;51.810;19.444;2023-06-14T04:30:13;10.60;;;6.50;;
59938;SDS011;45801;51.810;19.444;2023-06-14T04:32:40;9.90;;;6.50;;
59938;SDS011;45801;51.810;19.444;2023-06-14T04:35:06;10.90;;;6.70;;
59938;SDS011;45801;51.810;19.444;2023-06-14T04:37:34;10.40;;;6.50;;
59938;SDS011;45801;51.810;19.444;2023-06-14T04:40:01;10.90;;;7.00;;
59938;SDS011;45801;51.810;19.444;2023-06-14T04:42:30;10.20;;;7.20;;
59938;SDS011;45801;51.810;19.444;2023-06-14T04:44:57;11.30;;;6.80;;
59938;SDS011;45801;51.810;19.444;2023-06-14T04:47:23;11.50;;;7.20;;
59938;SDS011;45801;51.810;19.444;2023-06-14T04:49:56;10.30;;;6.80;;
59938;SDS011;45801;51.810;19.444;2023-06-14T04:52:24;12.50;;;7.00;;
59938;SDS011;45801;51.810;19.444;2023-06-14T04:54:52;11.10;;;7.40;;
59938;SDS011;45801;51.810;19.444;2023-06-14T04:57:20;11.00;;;7.30;;
59938;SDS011;45801;51.810;19.444;2023-06-14T04:59:48;13.40;;;7.00;;
59938;SDS011;45801;51.810;19.444;2023-06-14T05:02:24;11.20;;;7.10;;
59938;SDS011;45801;51.810;19.444;2023-06-14T05:04:53;10.90;;;7.00;;
59938;SDS011;45801;51.810;19.444;2023-06-14T05:07:21;11.40;;;7.50;;
59938;SDS011;45801;51.810;19.444;2023-06-14T05:09:50;11.30;;;7.20;;
59938;SDS011;45801;51.810;19.444;2023-06-14T05:12:16;11.40;;;6.70;;
59938;SDS011;45801;51.810;19.444;2023-06-14T05:14:45;10.40;;;6.90;;
59938;SDS011;45801;51.810;19.444;2023-06-14T05:17:11;11.90;;;7.00;;
59938;SDS011;45801;51.810;19.444;2023-06-14T05:19:38;11.00;;;7.00;;
59938;SDS011;45801;51.810;19.444;2023-06-14T05:22:04;10.60;;;7.00;;
59938;SDS011;45801;51.810;19.444;2023-06-14T05:24:31;11.50;;;7.00;;
59938;SDS011;45801;51.810;19.444;2023-06-14T05:26:58;10.70;;;7.20;;
59938;SDS011;45801;51.810;19.444;2023-06-14T05:29:25;10.70;;;7.20;;
59938;SDS011;45801;51.810;19.444;2023-06-14T05:31:52;13.10;;;6.80;;
59938;SDS011;45801;51.810;19.444;2023-06-14T05:34:19;12.40;;;7.70;;
59938;SDS011;45801;51.810;19.444;2023-06-14T05:36:46;11.00;;;7.00;;
59938;SDS011;45801;51.810;19.444;2023-06-14T05:39:12;10.60;;;7.10;;
59938;SDS011;45801;51.810;19.444;2023-06-14T05:41:39;11.50;;;7.20;;
59938;SDS011;45801;51.810;19.444;2023-06-14T05:44:06;11.20;;;7.10;;
59938;SDS011;45801;51.810;19.444;2023-06-14T05:46:33;10.10;;;7.00;;
59938;SDS011;45801;51.810;19.444;2023-06-14T05:49:00;13.40;;;7.00;;
59938;SDS011;45801;51.810;19.444;2023-06-14T05:51:27;12.50;;;7.20;;
59938;SDS011;45801;51.810;19.444;2023-06-14T05:53:53;10.10;;;6.80;;
59938;SDS011;45801;51.810;19.444;2023-06-14T05:56:20;14.30;;;7.30;;
59938;SDS011;45801;51.810;19.444;2023-06-14T05:58:47;10.80;;;6.40;;
59938;SDS011;45801;51.810;19.444;2023-06-14T06:01:14;10.80;;;6.60;;
59938;SDS011;45801;51.810;19.444;2023-06-14T06:03:41;11.80;;;6.40;;
59938;SDS011;45801;51.810;19.444;2023-06-14T06:06:12;10.00;;;6.60;;
59938;SDS011;45801;51.810;19.444;2023-06-14T06:08:39;10.00;;;6.60;;
59938;SDS011;45801;51.810;19.444;2023-06-14T06:11:05;13.00;;;6.50;;
59938;SDS011;45801;51.810;19.444;2023-06-14T06:13:32;11.20;;;6.40;;
59938;SDS011;45801;51.810;19.444;2023-06-14T06:15:59;10.20;;;6.20;;
59938;SDS011;45801;51.810;19.444;2023-06-14T06:18:25;12.40;;;6.30;;
59938;SDS011;45801;51.810;19.444;2023-06-14T06:20:52;10.50;;;6.40;;
59938;SDS011;45801;51.810;19.444;2023-06-14T06:23:18;10.10;;;6.60;;
59938;SDS011;45801;51.810;19.444;2023-06-14T06:25:44;12.10;;;7.00;;
59938;SDS011;45801;51.810;19.444;2023-06-14T06:28:11;9.40;;;6.30;;
59938;SDS011;45801;51.810;19.444;2023-06-14T06:30:38;10.90;;;6.40;;
59938;SDS011;45801;51.810;19.444;2023-06-14T06:33:04;9.40;;;6.10;;
59938;SDS011;45801;51.810;19.444;2023-06-14T06:35:31;10.40;;;6.40;;
59938;SDS011;45801;51.810;19.444;2023-06-14T06:37:59;11.50;;;6.50;;
59938;SDS011;45801;51.810;19.444;2023-06-14T06:40:27;10.00;;;6.60;;
59938;SDS011;45801;51.810;19.444;2023-06-14T06:42:53;9.70;;;6.40;;
59938;SDS011;45801;51.810;19.444;2023-06-14T06:45:20;12.30;;;6.80;;
59938;SDS011;45801;51.810;19.444;2023-06-14T06:47:48;10.00;;;6.70;;
59938;SDS011;45801;51.810;19.444;2023-06-14T06:50:14;13.20;;;6.70;;
59938;SDS011;45801;51.810;19.444;2023-06-14T06:52:41;11.00;;;6.20;;
59938;SDS011;45801;51.810;19.444;2023-06-14T06:55:08;10.80;;;6.90;;
59938;SDS011;45801;51.810;19.444;2023-06-14T06:57:37;11.50;;;6.20;;
59938;SDS011;45801;51.810;19.444;2023-06-14T07:00:04;9.60;;;6.10;;
59938;SDS011;45801;51.810;19.444;2023-06-14T07:02:36;9.70;;;6.40;;
59938;SDS011;45801;51.810;19.444;2023-06-14T07:05:03;11.50;;;6.90;;
59938;SDS011;45801;51.810;19.444;2023-06-14T07:07:30;10.30;;;6.10;;
59938;SDS011;45801;51.810;19.444;2023-06-14T07:09:58;11.10;;;6.30;;
59938;SDS011;45801;51.810;19.444;2023-06-14T07:12:25;10.80;;;6.60;;
59938;SDS011;45801;51.810;19.444;2023-06-14T07:14:52;11.20;;;6.30;;
59938;SDS011;45801;51.810;19.444;2023-06-14T07:17:18;11.40;;;6.70;;
59938;SDS011;45801;51.810;19.444;2023-06-14T07:19:45;10.40;;;6.30;;
59938;SDS011;45801;51.810;19.444;2023-06-14T07:22:12;10.70;;;6.40;;
59938;SDS011;45801;51.810;19.444;2023-06-14T07:24:39;10.40;;;5.80;;
59938;SDS011;45801;51.810;19.444;2023-06-14T07:27:06;11.60;;;6.30;;
59938;SDS011;45801;51.810;19.444;2023-06-14T07:29:34;10.30;;;6.30;;
59938;SDS011;45801;51.810;19.444;2023-06-14T07:32:00;11.70;;;5.80;;
59938;SDS011;45801;51.810;19.444;2023-06-14T07:34:27;10.00;;;6.20;;
59938;SDS011;45801;51.810;19.444;2023-06-14T07:36:53;11.50;;;5.70;;
59938;SDS011;45801;51.810;19.444;2023-06-14T07:39:20;10.40;;;5.40;;
59938;SDS011;45801;51.810;19.444;2023-06-14T07:41:47;10.50;;;5.80;;
59938;SDS011;45801;51.810;19.444;2023-06-14T07:44:13;11.00;;;5.50;;
59938;SDS011;45801;51.810;19.444;2023-06-14T07:46:40;10.10;;;5.20;;
59938;SDS011;45801;51.810;19.444;2023-06-14T07:49:06;8.40;;;4.70;;
59938;SDS011;45801;51.810;19.444;2023-06-14T07:51:33;9.40;;;4.80;;
59938;SDS011;45801;51.810;19.444;2023-06-14T07:53:59;8.20;;;4.90;;
59938;SDS011;45801;51.810;19.444;2023-06-14T07:56:27;9.60;;;5.20;;
59938;SDS011;45801;51.810;19.444;2023-06-14T07:58:53;10.00;;;4.80;;
59938;SDS011;45801;51.810;19.444;2023-06-14T08:01:20;10.10;;;5.30;;
59938;SDS011;45801;51.810;19.444;2023-06-14T08:03:46;10.20;;;4.90;;
59938;SDS011;45801;51.810;19.444;2023-06-14T08:06:13;8.90;;;4.70;;
59938;SDS011;45801;51.810;19.444;2023-06-14T08:08:39;9.40;;;5.10;;
59938;SDS011;45801;51.810;19.444;2023-06-14T08:11:06;10.40;;;5.30;;
59938;SDS011;45801;51.810;19.444;2023-06-14T08:13:32;10.00;;;5.50;;
59938;SDS011;45801;51.810;19.444;2023-06-14T08:15:59;10.10;;;5.70;;
59938;SDS011;45801;51.810;19.444;2023-06-14T08:18:27;9.70;;;4.90;;
59938;SDS011;45801;51.810;19.444;2023-06-14T08:20:54;10.10;;;5.20;;
59938;SDS011;45801;51.810;19.444;2023-06-14T08:23:20;9.50;;;4.90;;
59938;SDS011;45801;51.810;19.444;2023-06-14T08:25:47;10.00;;;5.40;;
59938;SDS011;45801;51.810;19.444;2023-06-14T08:28:14;9.70;;;5.50;;
59938;SDS011;45801;51.810;19.444;2023-06-14T08:30:41;9.20;;;4.90;;
59938;SDS011;45801;51.810;19.444;2023-06-14T08:33:08;10.40;;;5.20;;
59938;SDS011;45801;51.810;19.444;2023-06-14T08:35:35;8.80;;;3.90;;
59938;SDS011;45801;51.810;19.444;2023-06-14T08:38:05;9.70;;;5.60;;
59938;SDS011;45801;51.810;19.444;2023-06-14T08:40:32;9.90;;;5.10;;
59938;SDS011;45801;51.810;19.444;2023-06-14T08:43:04;10.40;;;6.00;;
59938;SDS011;45801;51.810;19.444;2023-06-14T08:45:31;10.90;;;5.80;;
59938;SDS011;45801;51.810;19.444;2023-06-14T08:47:59;10.70;;;6.30;;
59938;SDS011;45801;51.810;19.444;2023-06-14T08:50:26;11.60;;;6.20;;
59938;SDS011;45801;51.810;19.444;2023-06-14T08:52:57;10.80;;;6.10;;
59938;SDS011;45801;51.810;19.444;2023-06-14T08:55:29;11.40;;;6.00;;
59938;SDS011;45801;51.810;19.444;2023-06-14T08:57:57;11.10;;;5.90;;
59938;SDS011;45801;51.810;19.444;2023-06-14T09:00:25;11.30;;;6.20;;
59938;SDS011;45801;51.810;19.444;2023-06-14T09:02:53;10.70;;;6.60;;
59938;SDS011;45801;51.810;19.444;2023-06-14T09:05:26;10.10;;;6.40;;
59938;SDS011;45801;51.810;19.444;2023-06-14T09:07:53;11.00;;;6.00;;
59938;SDS011;45801;51.810;19.444;2023-06-14T09:10:26;11.30;;;6.10;;
59938;SDS011;45801;51.810;19.444;2023-06-14T09:12:54;10.70;;;5.60;;
59938;SDS011;45801;51.810;19.444;2023-06-14T09:15:21;10.50;;;6.10;;
59938;SDS011;45801;51.810;19.444;2023-06-14T09:17:48;9.90;;;6.00;;
59938;SDS011;45801;51.810;19.444;2023-06-14T09:20:14;8.90;;;4.90;;
